createdAt,value
2018-04-29T00:00:30.379Z,86.5
2018-04-29T00:01:31.990Z,86.9
2018-04-29T00:02:33.602Z,87.9
2018-04-29T00:03:35.220Z,88.6
2018-04-29T00:04:36.829Z,88.2
2018-04-29T00:05:38.443Z,89.2
2018-04-29T00:06:40.056Z,90.1
2018-04-29T00:07:41.668Z,90.2
2018-04-29T00:08:43.280Z,90.9
2018-04-29T00:09:44.889Z,90.6
2018-04-29T00:10:46.506Z,90.3
2018-04-29T00:11:48.113Z,90.4
2018-04-29T00:12:49.726Z,90.3
2018-04-29T00:13:51.344Z,91.5
2018-04-29T00:14:52.962Z,91.4
2018-04-29T00:15:54.569Z,91.1
2018-04-29T00:16:56.190Z,90.9
2018-04-29T00:17:57.797Z,91.2
2018-04-29T00:18:59.410Z,91.0
2018-04-29T00:20:01.023Z,91.3
2018-04-29T00:21:02.634Z,91.2
2018-04-29T00:22:04.246Z,90.7
2018-04-29T00:23:05.859Z,90.9
2018-04-29T00:24:07.472Z,90.6
2018-04-29T00:25:09.088Z,90.8
2018-04-29T00:26:10.696Z,90.3
2018-04-29T00:27:12.308Z,90.4
2018-04-29T00:28:13.927Z,90.4
2018-04-29T00:29:15.534Z,90.3
2018-04-29T00:30:17.149Z,89.9
2018-04-29T00:31:18.757Z,89.9
2018-04-29T00:32:20.374Z,90.4
2018-04-29T00:33:21.984Z,90.0
2018-04-29T00:34:23.593Z,90.0
2018-04-29T00:35:25.211Z,90.6
2018-04-29T00:36:26.819Z,90.9
2018-04-29T00:37:28.432Z,90.6
2018-04-29T00:38:30.052Z,90.8
2018-04-29T00:39:31.657Z,90.6
2018-04-29T00:40:33.272Z,90.8
2018-04-29T00:41:34.884Z,90.5
2018-04-29T00:42:36.502Z,90.7
2018-04-29T00:43:38.108Z,91.3
2018-04-29T00:44:39.719Z,91.3
2018-04-29T00:45:41.334Z,91.9
2018-04-29T00:46:42.945Z,91.1
2018-04-29T00:47:44.562Z,91.3
2018-04-29T00:48:46.175Z,91.6
2018-04-29T00:49:47.776Z,91.9
2018-04-29T00:50:49.402Z,92.5
2018-04-29T00:51:51.013Z,91.8
2018-04-29T00:52:52.622Z,91.7
2018-04-29T00:53:54.234Z,92.0
2018-04-29T00:54:55.841Z,91.7
2018-04-29T00:55:57.456Z,91.6
2018-04-29T00:56:59.065Z,91.8
2018-04-29T00:58:00.681Z,92.6
2018-04-29T00:59:02.300Z,93.0
2018-04-29T01:00:03.911Z,91.5
2018-04-29T01:01:05.527Z,92.5
2018-04-29T01:02:07.139Z,92.4
2018-04-29T01:03:08.748Z,92.5
2018-04-29T01:04:10.354Z,92.4
2018-04-29T01:05:11.976Z,92.9
2018-04-29T01:06:13.579Z,92.5
2018-04-29T01:07:15.196Z,93.4
2018-04-29T01:08:16.812Z,92.5
2018-04-29T01:09:18.419Z,93.5
2018-04-29T01:10:20.040Z,93.5
2018-04-29T01:11:21.646Z,93.6
2018-04-29T01:12:23.256Z,93.0
2018-04-29T01:13:24.872Z,93.6
2018-04-29T01:14:26.487Z,93.8
2018-04-29T01:15:28.098Z,94.9
2018-04-29T01:16:29.706Z,94.0
2018-04-29T01:17:31.314Z,94.7
2018-04-29T01:18:32.922Z,94.8
2018-04-29T01:19:34.540Z,94.5
2018-04-29T01:20:36.152Z,95.2
2018-04-29T01:21:37.765Z,94.7
2018-04-29T01:22:39.376Z,94.8
2018-04-29T01:23:40.988Z,95.9
2018-04-29T01:24:42.600Z,95.3
2018-04-29T01:25:44.209Z,95.8
2018-04-29T01:26:45.824Z,95.3
2018-04-29T01:27:47.440Z,95.8
2018-04-29T01:28:49.048Z,96.2
2018-04-29T01:29:50.660Z,96.6
2018-04-29T01:30:52.273Z,96.2
2018-04-29T01:31:53.884Z,96.3
2018-04-29T01:32:55.498Z,95.9
2018-04-29T01:33:57.113Z,95.8
2018-04-29T01:34:58.725Z,96.6
2018-04-29T01:36:00.341Z,97.0
2018-04-29T01:37:01.950Z,96.7
2018-04-29T01:38:03.557Z,96.8
2018-04-29T01:39:05.171Z,96.6
2018-04-29T01:40:06.776Z,96.5
2018-04-29T01:41:08.389Z,96.6
2018-04-29T01:42:10.004Z,96.7
2018-04-29T01:43:11.612Z,96.3
2018-04-29T01:44:13.231Z,95.6
2018-04-29T01:45:14.838Z,95.7
2018-04-29T01:46:16.451Z,95.4
2018-04-29T01:47:18.066Z,95.8
2018-04-29T01:48:19.678Z,97.0
2018-04-29T01:49:21.284Z,96.8
2018-04-29T01:50:22.902Z,96.5
2018-04-29T01:51:24.512Z,96.3
2018-04-29T01:52:26.122Z,96.6
2018-04-29T01:53:27.736Z,97.7
2018-04-29T01:54:29.342Z,98.9
2018-04-29T01:55:30.956Z,98.7
2018-04-29T01:56:32.566Z,98.8
2018-04-29T01:57:34.176Z,99.0
2018-04-29T01:58:35.795Z,98.7
2018-04-29T01:59:37.400Z,98.7
2018-04-29T02:00:39.015Z,98.7
2018-04-29T02:01:40.621Z,98.7
2018-04-29T02:02:42.236Z,98.8
2018-04-29T02:03:43.848Z,98.6
2018-04-29T02:04:45.463Z,98.4
2018-04-29T02:05:47.082Z,98.7
2018-04-29T02:06:48.684Z,98.8
2018-04-29T02:07:50.305Z,98.6
2018-04-29T02:08:51.902Z,98.5
2018-04-29T02:09:53.513Z,98.8
2018-04-29T02:10:55.127Z,98.4
2018-04-29T02:11:56.738Z,98.7
2018-04-29T02:12:58.349Z,98.7
2018-04-29T02:13:59.963Z,98.8
2018-04-29T02:15:01.573Z,98.3
2018-04-29T02:16:03.181Z,98.0
2018-04-29T02:17:04.796Z,97.6
2018-04-29T02:18:06.407Z,97.4
2018-04-29T02:19:08.015Z,97.4
2018-04-29T02:20:09.633Z,97.4
2018-04-29T02:21:11.240Z,97.4
2018-04-29T02:22:12.853Z,97.5
2018-04-29T02:23:14.458Z,98.3
2018-04-29T02:24:16.068Z,98.8
2018-04-29T02:25:17.679Z,100.0
2018-04-29T02:26:19.295Z,99.7
2018-04-29T02:27:20.904Z,100.0
2018-04-29T02:28:22.515Z,99.6
2018-04-29T02:29:24.120Z,99.7
2018-04-29T02:30:25.726Z,99.5
2018-04-29T02:31:27.454Z,99.8
2018-04-29T02:32:28.946Z,99.8
2018-04-29T02:33:30.560Z,99.4
2018-04-29T02:34:32.175Z,100.0
2018-04-29T02:35:33.786Z,99.8
2018-04-29T02:36:35.399Z,100.0
2018-04-29T02:37:37.006Z,99.8
2018-04-29T02:38:38.612Z,99.8
2018-04-29T02:39:40.224Z,99.5
2018-04-29T02:40:41.831Z,99.4
2018-04-29T02:41:43.439Z,99.6
2018-04-29T02:42:45.048Z,100.0
2018-04-29T02:43:46.657Z,100.0
2018-04-29T02:44:48.264Z,100.0
2018-04-29T02:45:49.880Z,100.0
2018-04-29T02:46:51.489Z,100.0
2018-04-29T02:47:53.103Z,100.0
2018-04-29T02:48:54.726Z,100.0
2018-04-29T02:49:56.319Z,100.0
2018-04-29T02:50:57.927Z,100.0
2018-04-29T02:51:59.538Z,100.0
2018-04-29T02:53:01.149Z,100.0
2018-04-29T02:54:02.780Z,100.0
2018-04-29T02:55:04.386Z,99.7
2018-04-29T02:56:05.996Z,99.9
2018-04-29T02:57:07.607Z,99.9
2018-04-29T02:58:09.215Z,100.0
2018-04-29T02:59:10.822Z,100.0
2018-04-29T03:00:12.437Z,100.0
2018-04-29T03:01:14.043Z,100.0
2018-04-29T03:02:15.660Z,100.0
2018-04-29T03:03:17.267Z,100.0
2018-04-29T03:04:18.874Z,100.0
2018-04-29T03:05:20.484Z,100.0
2018-04-29T03:06:22.090Z,100.0
2018-04-29T03:07:23.695Z,100.0
2018-04-29T03:08:25.310Z,100.0
2018-04-29T03:09:26.922Z,100.0
2018-04-29T03:10:28.533Z,100.0
2018-04-29T03:11:30.140Z,100.0
2018-04-29T03:12:31.748Z,100.0
2018-04-29T03:13:33.361Z,100.0
2018-04-29T03:14:34.968Z,100.0
2018-04-29T03:15:36.581Z,100.0
2018-04-29T03:16:38.198Z,100.0
2018-04-29T03:17:39.811Z,100.0
2018-04-29T03:18:41.415Z,100.0
2018-04-29T03:19:43.024Z,100.0
2018-04-29T03:20:44.638Z,100.0
2018-04-29T03:21:46.244Z,100.0
2018-04-29T03:22:47.859Z,100.0
2018-04-29T03:23:49.466Z,100.0
2018-04-29T03:24:51.075Z,100.0
2018-04-29T03:25:52.688Z,100.0
2018-04-29T03:26:54.297Z,100.0
2018-04-29T03:27:55.905Z,100.0
2018-04-29T03:28:57.510Z,100.0
2018-04-29T03:29:59.124Z,100.0
2018-04-29T03:31:00.735Z,100.0
2018-04-29T03:32:02.349Z,100.0
2018-04-29T03:33:03.960Z,100.0
2018-04-29T03:34:05.563Z,100.0
2018-04-29T03:35:07.174Z,100.0
2018-04-29T03:36:08.784Z,100.0
2018-04-29T03:37:10.390Z,100.0
2018-04-29T03:38:12.004Z,100.0
2018-04-29T03:39:13.613Z,100.0
2018-04-29T03:40:15.217Z,100.0
2018-04-29T03:41:16.829Z,100.0
2018-04-29T03:42:18.441Z,100.0
2018-04-29T03:43:20.050Z,100.0
2018-04-29T03:44:21.663Z,100.0
2018-04-29T03:45:23.276Z,100.0
2018-04-29T03:46:24.886Z,100.0
2018-04-29T03:47:26.490Z,100.0
2018-04-29T03:48:28.096Z,100.0
2018-04-29T03:49:29.714Z,100.0
2018-04-29T03:50:31.319Z,100.0
2018-04-29T03:51:32.933Z,100.0
2018-04-29T03:52:34.543Z,100.0
2018-04-29T03:53:36.152Z,100.0
2018-04-29T03:54:37.767Z,100.0
2018-04-29T03:55:39.378Z,100.0
2018-04-29T03:56:40.994Z,100.0
2018-04-29T03:57:42.597Z,100.0
2018-04-29T03:58:44.214Z,100.0
2018-04-29T03:59:45.825Z,100.0
2018-04-29T04:00:47.434Z,100.0
2018-04-29T04:01:51.279Z,100.0
2018-04-29T04:02:50.722Z,100.0
2018-04-29T04:03:52.270Z,100.0
2018-04-29T04:04:53.889Z,100.0
2018-04-29T04:05:55.497Z,100.0
2018-04-29T04:06:57.112Z,100.0
2018-04-29T04:07:58.726Z,100.0
2018-04-29T04:09:00.338Z,100.0
2018-04-29T04:10:01.956Z,100.0
2018-04-29T04:11:03.568Z,100.0
2018-04-29T04:12:05.196Z,100.0
2018-04-29T04:13:06.803Z,100.0
2018-04-29T04:14:08.411Z,100.0
2018-04-29T04:15:10.029Z,100.0
2018-04-29T04:16:11.640Z,100.0
2018-04-29T04:17:13.249Z,100.0
2018-04-29T04:18:14.862Z,100.0
2018-04-29T04:19:16.473Z,100.0
2018-04-29T04:20:18.089Z,100.0
2018-04-29T04:21:19.701Z,100.0
2018-04-29T04:22:21.316Z,100.0
2018-04-29T04:23:22.921Z,100.0
2018-04-29T04:24:24.537Z,100.0
2018-04-29T04:25:26.153Z,100.0
2018-04-29T04:26:27.764Z,100.0
2018-04-29T04:27:29.383Z,100.0
2018-04-29T04:28:30.997Z,100.0
2018-04-29T04:29:32.619Z,100.0
2018-04-29T04:30:34.224Z,100.0
2018-04-29T04:31:35.837Z,100.0
2018-04-29T04:32:37.455Z,100.0
2018-04-29T04:33:39.063Z,100.0
2018-04-29T04:34:40.681Z,100.0
2018-04-29T04:35:42.299Z,100.0
2018-04-29T04:36:43.912Z,100.0
2018-04-29T04:37:45.520Z,100.0
2018-04-29T04:38:47.137Z,100.0
2018-04-29T04:39:48.752Z,100.0
2018-04-29T04:40:50.363Z,100.0
2018-04-29T04:41:51.978Z,100.0
2018-04-29T04:42:53.591Z,100.0
2018-04-29T04:43:55.198Z,100.0
2018-04-29T06:18:47.824Z,88.4
2018-04-29T06:19:49.441Z,88.4
2018-04-29T06:21:41.131Z,87.9
2018-04-29T06:22:42.751Z,88.3
2018-04-29T06:24:34.466Z,88.1
2018-04-29T06:25:36.077Z,88.0
2018-04-29T06:27:27.776Z,88.4
2018-04-29T06:28:29.387Z,88.5
2018-04-29T06:30:21.187Z,89.1
2018-04-29T06:31:22.803Z,88.9
2018-04-29T06:33:14.516Z,88.6
2018-04-29T06:34:16.127Z,88.2
2018-04-29T06:36:07.825Z,87.0
2018-04-29T06:37:09.444Z,85.9
2018-04-29T06:39:01.167Z,84.0
2018-04-29T06:40:02.780Z,81.3
2018-04-29T06:41:55.315Z,79.1
2018-04-29T06:42:56.937Z,79.5
2018-04-29T06:44:48.648Z,79.6
2018-04-29T06:45:50.266Z,79.1
2018-04-29T06:47:41.961Z,80.4
2018-04-29T06:48:43.582Z,80.7
2018-04-29T06:50:35.295Z,81.8
2018-04-29T06:51:36.921Z,81.8
2018-04-29T06:53:28.672Z,82.0
2018-04-29T06:54:30.240Z,81.8
2018-04-29T06:56:21.955Z,81.7
2018-04-29T06:57:23.574Z,82.1
2018-04-29T06:59:15.291Z,81.3
2018-04-29T07:00:16.914Z,81.7
2018-04-29T07:02:08.613Z,81.7
2018-04-29T07:03:10.228Z,81.8
2018-04-29T07:05:01.950Z,80.7
2018-04-29T07:06:03.577Z,80.4
2018-04-29T07:07:55.272Z,80.5
2018-04-29T07:08:56.947Z,79.7
2018-04-29T07:10:48.665Z,80.8
2018-04-29T07:11:50.283Z,80.2
2018-04-29T07:13:41.983Z,80.9
2018-04-29T07:14:43.598Z,81.3
2018-04-29T07:16:35.315Z,81.8
2018-04-29T07:17:36.935Z,81.7
2018-04-29T07:19:28.657Z,81.7
2018-04-29T07:20:30.294Z,80.8
2018-04-29T07:22:21.982Z,81.7
2018-04-29T07:23:23.606Z,81.5
2018-04-29T07:25:15.323Z,80.8
2018-04-29T07:26:16.940Z,80.5
2018-04-29T07:28:08.646Z,79.9
2018-04-29T07:29:10.260Z,80.4
2018-04-29T07:31:01.981Z,79.3
2018-04-29T07:32:03.598Z,80.6
2018-04-29T07:33:55.293Z,80.7
2018-04-29T07:34:56.908Z,80.5
2018-04-29T07:36:48.628Z,80.8
2018-04-29T07:37:50.240Z,81.4
2018-04-29T07:39:42.977Z,82.8
2018-04-29T07:40:44.568Z,84.7
2018-04-29T07:42:36.286Z,86.0
2018-04-29T07:43:37.906Z,87.2
2018-04-29T07:45:29.624Z,89.1
2018-04-29T07:46:31.270Z,88.2
2018-04-29T07:48:22.939Z,89.9
2018-04-29T07:49:24.553Z,89.8
2018-04-29T07:51:16.274Z,90.3
2018-04-29T07:52:17.991Z,90.2
2018-04-29T07:54:09.593Z,90.6
2018-04-29T07:55:11.204Z,91.2
2018-04-29T07:57:02.916Z,90.9
2018-04-29T07:58:04.534Z,91.7
2018-04-29T07:59:56.294Z,93.0
2018-04-29T08:00:58.727Z,93.5
2018-04-29T08:02:50.450Z,93.7
2018-04-29T08:03:52.065Z,94.0
2018-04-29T08:05:43.762Z,95.6
2018-04-29T08:06:45.392Z,95.9
2018-04-29T08:08:37.092Z,95.6
2018-04-29T08:09:38.705Z,94.4
2018-04-29T08:11:30.426Z,95.3
2018-04-29T08:12:32.045Z,95.0
2018-04-29T08:14:23.745Z,94.6
2018-04-29T08:15:25.412Z,94.2
2018-04-29T08:17:17.084Z,91.6
2018-04-29T08:18:18.701Z,89.8
2018-04-29T08:20:10.404Z,89.9
2018-04-29T08:21:12.024Z,89.8
2018-04-29T08:23:04.719Z,90.9
2018-04-29T08:24:06.370Z,88.8
2018-04-29T08:25:58.069Z,88.8
2018-04-29T08:26:59.685Z,88.5
2018-04-29T08:28:51.408Z,87.3
2018-04-29T08:29:53.024Z,88.4
2018-04-29T08:31:44.748Z,86.3
2018-04-29T08:32:46.370Z,87.2
2018-04-29T08:34:38.066Z,87.8
2018-04-29T08:35:39.687Z,88.6
2018-04-29T08:37:31.416Z,87.3
2018-04-29T08:38:33.031Z,85.4
2018-04-29T08:40:24.731Z,86.9
2018-04-29T08:41:26.358Z,85.2
2018-04-29T08:43:18.125Z,86.4
2018-04-29T08:44:19.699Z,87.2
2018-04-29T08:46:11.898Z,83.4
2018-04-29T08:47:13.516Z,83.4
2018-04-29T08:48:15.135Z,84.2
2018-04-29T08:49:16.763Z,84.1
2018-04-29T08:50:18.441Z,83.0
2018-04-29T08:51:20.010Z,82.5
2018-04-29T08:52:21.631Z,80.7
2018-04-29T08:53:23.250Z,79.8
2018-04-29T08:54:24.873Z,80.0
2018-04-29T08:55:26.492Z,81.6
2018-04-29T08:56:28.115Z,80.5
2018-04-29T08:57:29.738Z,81.3
2018-04-29T08:58:31.360Z,81.1
2018-04-29T08:59:32.980Z,80.4
2018-04-29T09:00:34.601Z,80.6
2018-04-29T09:01:36.280Z,80.5
2018-04-29T09:02:37.838Z,80.3
2018-04-29T09:03:39.478Z,82.4
2018-04-29T09:04:41.079Z,83.5
2018-04-29T09:05:42.699Z,81.7
2018-04-29T09:06:44.324Z,82.3
2018-04-29T09:07:45.943Z,82.6
2018-04-29T09:08:47.600Z,83.9
2018-04-29T09:09:49.223Z,85.1
2018-04-29T09:10:52.445Z,85.0
2018-04-29T09:11:54.067Z,84.3
2018-04-29T09:12:55.699Z,84.2
2018-04-29T09:13:57.329Z,83.1
2018-04-29T09:14:58.945Z,83.9
2018-04-29T09:16:00.564Z,81.2
2018-04-29T09:17:02.186Z,80.7
2018-04-29T09:18:03.805Z,80.8
2018-04-29T09:19:05.427Z,77.4
2018-04-29T09:20:07.050Z,77.3
2018-04-29T09:21:08.678Z,77.0
2018-04-29T09:22:10.300Z,77.9
2018-04-29T09:23:11.927Z,78.1
2018-04-29T09:24:13.561Z,75.9
2018-04-29T09:25:15.175Z,75.1
2018-04-29T09:26:16.802Z,74.5
2018-04-29T09:27:18.423Z,73.5
2018-04-29T09:28:20.046Z,75.8
2018-04-29T09:29:21.673Z,76.0
2018-04-29T09:30:23.301Z,75.6
2018-04-29T09:31:24.921Z,76.8
2018-04-29T09:32:26.550Z,75.5
2018-04-29T09:33:28.169Z,72.8
2018-04-29T09:34:29.795Z,70.1
2018-04-29T09:35:31.419Z,70.1
2018-04-29T09:36:33.053Z,68.2
2018-04-29T09:37:34.676Z,69.0
2018-04-29T09:38:36.306Z,69.9
2018-04-29T09:39:37.931Z,70.3
2018-04-29T09:40:39.553Z,71.1
2018-04-29T09:41:41.188Z,71.3
2018-04-29T09:42:42.807Z,70.6
2018-04-29T09:43:44.456Z,72.2
2018-04-29T09:44:46.066Z,70.5
2018-04-29T09:45:47.696Z,71.3
2018-04-29T09:46:49.317Z,71.9
2018-04-29T09:47:50.939Z,72.2
2018-04-29T09:48:52.563Z,72.2
2018-04-29T09:49:54.194Z,71.9
2018-04-29T09:50:55.816Z,71.7
2018-04-29T09:51:57.442Z,72.8
2018-04-29T09:52:59.063Z,72.2
2018-04-29T09:54:00.691Z,71.6
2018-04-29T09:55:02.313Z,72.4
2018-04-29T09:56:03.943Z,72.4
2018-04-29T09:57:05.575Z,72.6
2018-04-29T09:58:07.196Z,72.9
2018-04-29T09:59:08.829Z,72.6
2018-04-29T10:00:10.445Z,70.4
2018-04-29T10:01:12.096Z,71.9
2018-04-29T10:02:13.702Z,72.7
2018-04-29T10:03:15.320Z,73.6
2018-04-29T10:04:16.949Z,72.1
2018-04-29T10:05:18.576Z,69.8
2018-04-29T10:06:20.197Z,68.6
2018-04-29T10:07:21.826Z,70.1
2018-04-29T10:08:23.447Z,69.2
2018-04-29T10:09:25.073Z,70.1
2018-04-29T10:10:26.705Z,69.5
2018-04-29T10:11:28.332Z,68.4
2018-04-29T10:12:29.957Z,66.3
2018-04-29T10:13:31.587Z,67.1
2018-04-29T10:14:33.216Z,67.2
2018-04-29T10:15:34.839Z,64.4
2018-04-29T10:16:36.473Z,62.3
2018-04-29T10:17:38.097Z,59.4
2018-04-29T10:18:39.732Z,62.0
2018-04-29T10:19:41.362Z,59.2
2018-04-29T10:20:42.997Z,59.3
2018-04-29T10:21:44.631Z,59.2
2018-04-29T10:22:46.259Z,60.3
2018-04-29T10:23:47.896Z,59.3
2018-04-29T10:24:49.525Z,57.5
2018-04-29T10:25:51.173Z,59.0
2018-04-29T10:26:52.793Z,56.6
2018-04-29T10:27:54.429Z,56.5
2018-04-29T10:28:56.057Z,56.3
2018-04-29T10:29:57.686Z,55.9
2018-04-29T10:30:59.324Z,53.8
2018-04-29T10:32:00.956Z,53.2
2018-04-29T10:33:02.678Z,54.0
2018-04-29T10:34:04.224Z,53.9
2018-04-29T10:35:05.860Z,53.7
2018-04-29T10:36:07.496Z,50.2
2018-04-29T10:37:09.127Z,49.8
2018-04-29T10:38:10.767Z,50.0
2018-04-29T10:39:12.429Z,50.2
2018-04-29T10:40:14.030Z,49.9
2018-04-29T10:41:15.673Z,48.7
2018-04-29T10:42:17.306Z,49.5
2018-04-29T10:43:18.950Z,46.9
2018-04-29T10:44:20.586Z,46.3
2018-04-29T10:45:22.221Z,47.4
2018-04-29T10:46:23.856Z,46.4
2018-04-29T10:47:25.499Z,44.7
2018-04-29T10:48:27.140Z,42.6
2018-04-29T10:49:28.771Z,41.3
2018-04-29T10:50:30.411Z,41.5
2018-04-29T10:51:32.045Z,42.5
2018-04-29T10:52:33.718Z,44.4
2018-04-29T10:53:35.326Z,45.6
2018-04-29T10:54:36.961Z,46.2
2018-04-29T10:55:38.606Z,46.1
2018-04-29T10:56:40.308Z,45.4
2018-04-29T10:57:41.875Z,45.5
2018-04-29T10:58:43.592Z,44.3
2018-04-29T10:59:45.150Z,45.6
2018-04-29T11:00:46.790Z,44.8
2018-04-29T11:01:48.436Z,44.7
2018-04-29T11:02:50.065Z,45.1
2018-04-29T11:03:51.702Z,46.1
2018-04-29T11:04:53.338Z,46.1
2018-04-29T11:05:54.967Z,45.4
2018-04-29T11:06:56.603Z,46.2
2018-04-29T11:07:58.241Z,45.1
2018-04-29T11:08:59.880Z,47.0
2018-04-29T11:10:01.514Z,47.5
2018-04-29T11:11:03.141Z,45.4
2018-04-29T11:12:04.779Z,46.5
2018-04-29T11:13:06.410Z,47.5
2018-04-29T11:14:08.050Z,48.1
2018-04-29T11:15:09.681Z,47.7
2018-04-29T11:16:11.320Z,49.1
2018-04-29T11:17:12.957Z,48.4
2018-04-29T11:18:14.584Z,49.6
2018-04-29T11:19:16.220Z,49.9
2018-04-29T11:20:17.847Z,50.1
2018-04-29T11:21:19.480Z,49.9
2018-04-29T11:22:21.215Z,51.6
2018-04-29T11:23:22.747Z,50.6
2018-04-29T11:24:24.382Z,51.6
2018-04-29T11:25:26.011Z,51.0
2018-04-29T11:26:27.638Z,51.0
2018-04-29T11:27:29.274Z,51.4
2018-04-29T11:28:30.956Z,50.7
2018-04-29T11:29:32.531Z,49.7
2018-04-29T11:30:34.168Z,50.1
2018-04-29T11:31:35.801Z,50.8
2018-04-29T11:32:37.426Z,51.1
2018-04-29T11:33:39.062Z,50.1
2018-04-29T11:34:40.688Z,51.0
2018-04-29T11:35:42.318Z,49.4
2018-04-29T11:36:43.955Z,48.7
2018-04-29T11:37:45.589Z,48.9
2018-04-29T11:38:47.225Z,48.5
2018-04-29T11:39:48.861Z,48.0
2018-04-29T11:40:50.486Z,47.9
2018-04-29T11:41:52.116Z,48.4
2018-04-29T11:42:53.752Z,48.3
2018-04-29T11:43:55.385Z,48.2
2018-04-29T11:44:57.018Z,49.4
2018-04-29T11:45:58.661Z,49.5
2018-04-29T11:47:00.348Z,49.9
2018-04-29T11:48:01.912Z,50.8
2018-04-29T11:49:03.546Z,51.1
2018-04-29T11:50:05.178Z,50.1
2018-04-29T11:51:06.808Z,49.0
2018-04-29T11:52:08.441Z,48.6
2018-04-29T11:53:10.074Z,49.1
2018-04-29T11:54:11.700Z,50.7
2018-04-29T11:55:13.330Z,50.6
2018-04-29T11:56:14.957Z,50.4
2018-04-29T11:57:16.593Z,51.3
2018-04-29T11:58:18.847Z,52.0
2018-04-29T11:59:19.813Z,51.8
2018-04-29T12:00:21.449Z,51.8
2018-04-29T12:01:23.077Z,51.7
2018-04-29T12:02:24.706Z,50.8
2018-04-29T12:03:26.338Z,51.2
2018-04-29T12:04:27.969Z,51.4
2018-04-29T12:05:29.595Z,52.1
2018-04-29T12:06:31.230Z,50.6
2018-04-29T12:07:32.861Z,51.1
2018-04-29T12:08:34.495Z,51.1
2018-04-29T12:09:36.117Z,52.1
2018-04-29T12:10:37.744Z,52.7
2018-04-29T12:11:39.372Z,53.2
2018-04-29T12:12:41.006Z,52.6
2018-04-29T12:13:42.631Z,52.6
2018-04-29T12:14:44.265Z,54.7
2018-04-29T12:15:45.885Z,56.4
2018-04-29T12:16:47.510Z,58.5
2018-04-29T12:17:49.146Z,59.5
2018-04-29T12:18:50.774Z,60.5
2018-04-29T12:19:52.405Z,61.8
2018-04-29T12:20:54.035Z,61.5
2018-04-29T12:21:55.662Z,61.8
2018-04-29T12:22:57.293Z,60.9
2018-04-29T12:23:58.921Z,59.9
2018-04-29T12:25:00.552Z,60.7
2018-04-29T12:26:02.187Z,60.6
2018-04-29T12:27:03.812Z,58.4
2018-04-29T12:28:05.440Z,58.4
2018-04-29T12:29:07.067Z,60.5
2018-04-29T12:30:08.698Z,60.9
2018-04-29T12:31:10.319Z,60.7
2018-04-29T12:32:11.950Z,60.5
2018-04-29T12:33:13.584Z,59.2
2018-04-29T12:34:15.208Z,58.9
2018-04-29T12:35:16.841Z,59.5
2018-04-29T12:36:18.465Z,58.5
2018-04-29T12:37:20.091Z,58.9
2018-04-29T12:38:21.722Z,60.0
2018-04-29T12:39:23.350Z,58.8
2018-04-29T12:40:24.982Z,60.2
2018-04-29T12:41:26.604Z,60.8
2018-04-29T12:42:28.232Z,59.8
2018-04-29T12:43:29.868Z,59.5
2018-04-29T12:44:31.494Z,59.6
2018-04-29T12:45:33.118Z,60.3
2018-04-29T12:46:34.775Z,59.8
2018-04-29T12:47:36.362Z,60.1
2018-04-29T12:48:37.996Z,60.4
2018-04-29T12:49:39.617Z,60.3
2018-04-29T12:50:41.248Z,60.6
2018-04-29T12:51:42.874Z,59.7
2018-04-29T12:52:44.499Z,61.0
2018-04-29T12:53:46.129Z,61.5
2018-04-29T12:54:47.758Z,61.1
2018-04-29T12:55:49.386Z,62.2
2018-04-29T12:56:51.017Z,61.9
2018-04-29T12:57:52.644Z,61.4
2018-04-29T12:58:54.272Z,61.5
2018-04-29T12:59:55.900Z,60.8
2018-04-29T13:00:57.524Z,60.8
2018-04-29T13:01:59.147Z,60.1
2018-04-29T13:03:00.779Z,60.9
2018-04-29T13:04:02.401Z,60.7
2018-04-29T13:05:04.033Z,60.4
2018-04-29T13:06:05.662Z,61.0
2018-04-29T13:07:07.284Z,59.9
2018-04-29T13:08:08.915Z,60.0
2018-04-29T13:09:10.537Z,59.3
2018-04-29T13:10:12.168Z,60.3
2018-04-29T13:11:13.798Z,60.0
2018-04-29T13:12:15.425Z,59.1
2018-04-29T13:13:17.055Z,59.2
2018-04-29T13:14:18.677Z,59.0
2018-04-29T13:15:20.308Z,58.4
2018-04-29T13:16:21.937Z,59.0
2018-04-29T13:17:23.563Z,59.6
2018-04-29T13:18:25.197Z,58.8
2018-04-29T13:19:26.824Z,58.6
2018-04-29T13:20:28.452Z,57.9
2018-04-29T13:21:30.153Z,57.6
2018-04-29T13:22:31.704Z,57.6
2018-04-29T13:23:33.329Z,57.3
2018-04-29T13:24:34.955Z,56.6
2018-04-29T13:25:36.594Z,55.8
2018-04-29T13:26:38.221Z,55.7
2018-04-29T13:27:39.844Z,55.6
2018-04-29T13:28:41.477Z,55.2
2018-04-29T13:29:43.107Z,55.8
2018-04-29T13:30:44.737Z,53.5
2018-04-29T13:31:46.367Z,53.5
2018-04-29T13:32:48.004Z,54.8
2018-04-29T13:33:49.629Z,54.1
2018-04-29T13:34:51.258Z,54.6
2018-04-29T13:35:52.885Z,54.4
2018-04-29T13:36:54.517Z,53.1
2018-04-29T13:37:56.142Z,54.0
2018-04-29T13:38:57.772Z,53.6
2018-04-29T13:39:59.408Z,52.8
2018-04-29T13:41:01.038Z,51.0
2018-04-29T13:42:02.671Z,51.2
2018-04-29T13:43:04.295Z,49.4
2018-04-29T13:44:05.927Z,49.4
2018-04-29T13:45:07.562Z,48.2
2018-04-29T13:46:09.194Z,47.4
2018-04-29T13:47:10.820Z,47.9
2018-04-29T13:48:12.450Z,48.2
2018-04-29T13:49:14.082Z,48.7
2018-04-29T13:50:15.711Z,49.1
2018-04-29T13:51:17.345Z,48.4
2018-04-29T13:52:19.056Z,48.1
2018-04-29T13:53:20.609Z,48.4
2018-04-29T13:54:22.241Z,47.8
2018-04-29T13:55:23.867Z,46.6
2018-04-29T13:56:25.501Z,46.6
2018-04-29T13:57:27.128Z,47.2
2018-04-29T13:58:28.762Z,48.2
2018-04-29T13:59:30.395Z,48.5
2018-04-29T14:00:32.031Z,48.5
2018-04-29T14:01:33.666Z,48.5
2018-04-29T14:02:35.296Z,47.9
2018-04-29T14:03:36.923Z,48.1
2018-04-29T14:04:38.553Z,48.1
2018-04-29T14:05:40.184Z,47.5
2018-04-29T14:06:41.807Z,47.8
2018-04-29T14:07:43.440Z,47.9
2018-04-29T14:08:45.076Z,47.4
2018-04-29T14:09:46.704Z,46.3
2018-04-29T14:10:48.332Z,47.1
2018-04-29T14:11:49.963Z,47.7
2018-04-29T14:12:51.595Z,46.8
2018-04-29T14:13:53.225Z,47.5
2018-04-29T14:14:54.857Z,48.6
2018-04-29T14:15:56.490Z,48.0
2018-04-29T14:16:58.124Z,48.3
2018-04-29T14:17:59.754Z,48.3
2018-04-29T14:19:01.383Z,49.2
2018-04-29T14:20:03.008Z,50.8
2018-04-29T14:21:04.643Z,50.5
2018-04-29T14:22:06.270Z,50.1
2018-04-29T14:23:07.898Z,49.7
2018-04-29T14:24:09.531Z,49.4
2018-04-29T14:25:11.154Z,49.2
2018-04-29T14:26:12.781Z,49.4
2018-04-29T14:27:14.416Z,49.9
2018-04-29T14:28:16.047Z,49.1
2018-04-29T14:29:17.675Z,48.8
2018-04-29T14:30:19.302Z,48.5
2018-04-29T14:31:21.006Z,48.2
2018-04-29T14:32:22.560Z,48.9
2018-04-29T14:33:24.190Z,49.1
2018-04-29T14:34:25.821Z,49.6
2018-04-29T14:35:27.451Z,50.1
2018-04-29T14:36:29.076Z,49.9
2018-04-29T14:37:30.707Z,50.3
2018-04-29T14:38:32.344Z,49.0
2018-04-29T14:39:33.965Z,49.5
2018-04-29T14:40:35.591Z,49.1
2018-04-29T14:41:37.222Z,50.4
2018-04-29T14:42:38.847Z,50.8
2018-04-29T14:43:40.477Z,50.7
2018-04-29T14:44:42.101Z,51.8
2018-04-29T14:45:43.733Z,52.0
2018-04-29T14:46:45.353Z,52.2
2018-04-29T14:47:46.982Z,52.8
2018-04-29T14:48:48.608Z,53.1
2018-04-29T14:49:50.232Z,53.5
2018-04-29T14:50:51.861Z,54.0
2018-04-29T14:51:53.491Z,54.4
2018-04-29T14:52:55.119Z,54.7
2018-04-29T14:53:56.741Z,56.0
2018-04-29T14:54:58.368Z,55.3
2018-04-29T14:56:00.069Z,56.1
2018-04-29T14:57:01.611Z,56.0
2018-04-29T14:58:03.243Z,55.9
2018-04-29T14:59:04.869Z,56.2
2018-04-29T15:00:06.494Z,57.0
2018-04-29T15:01:08.117Z,56.2
2018-04-29T15:02:09.751Z,57.0
2018-04-29T15:03:11.369Z,56.5
2018-04-29T15:04:12.999Z,57.4
2018-04-29T15:05:14.619Z,57.8
2018-04-29T15:06:16.248Z,58.4
2018-04-29T15:07:17.891Z,57.6
2018-04-29T15:08:19.508Z,57.5
2018-04-29T15:09:21.135Z,58.1
2018-04-29T15:10:22.799Z,58.5
2018-04-29T15:11:24.377Z,58.3
2018-04-29T15:12:26.007Z,58.5
2018-04-29T15:13:27.632Z,58.2
2018-04-29T15:14:29.253Z,58.7
2018-04-29T15:15:30.877Z,58.7
2018-04-29T15:16:32.496Z,58.5
2018-04-29T15:17:34.125Z,58.7
2018-04-29T15:18:35.744Z,58.7
2018-04-29T15:19:37.368Z,58.9
2018-04-29T15:20:38.997Z,58.9
2018-04-29T15:21:40.621Z,58.6
2018-04-29T15:22:42.241Z,58.9
2018-04-29T15:23:43.868Z,58.9
2018-04-29T15:24:45.492Z,58.6
2018-04-29T15:25:47.118Z,58.7
2018-04-29T15:26:48.732Z,58.7
2018-04-29T15:27:50.355Z,58.6
2018-04-29T15:28:51.982Z,59.0
2018-04-29T15:29:53.596Z,59.3
2018-04-29T15:30:55.223Z,59.2
2018-04-29T15:31:56.853Z,58.9
2018-04-29T15:32:58.473Z,59.3
2018-04-29T15:34:00.104Z,59.5
2018-04-29T15:35:01.725Z,59.8
2018-04-29T15:36:03.353Z,59.6
2018-04-29T15:37:04.978Z,58.7
2018-04-29T15:38:06.601Z,59.1
2018-04-29T15:39:08.222Z,58.7
2018-04-29T15:40:09.848Z,59.1
2018-04-29T15:41:11.472Z,60.1
2018-04-29T15:42:13.095Z,61.1
2018-04-29T15:43:14.716Z,61.6
2018-04-29T15:44:16.342Z,62.5
2018-04-29T15:45:17.963Z,62.0
2018-04-29T15:46:19.591Z,60.2
2018-04-29T15:47:21.212Z,61.5
2018-04-29T15:48:22.839Z,60.9
2018-04-29T15:49:24.465Z,61.2
2018-04-29T15:50:26.082Z,60.1
2018-04-29T15:51:27.707Z,60.5
2018-04-29T15:52:29.330Z,59.3